sensor_id;sensor_type;location;lat;lon;timestamp;P1;durP1;ratioP1;P2;durP2;ratioP2
32198;SDS011;19221;42.656;21.156;2023-03-12T00:01:56;8.70;;;5.10;;
32198;SDS011;19221;42.656;21.156;2023-03-12T00:04:24;7.97;;;5.13;;
32198;SDS011;19221;42.656;21.156;2023-03-12T00:06:49;9.10;;;5.15;;
32198;SDS011;19221;42.656;21.156;2023-03-12T00:09:15;8.13;;;5.68;;
32198;SDS011;19221;42.656;21.156;2023-03-12T00:11:41;6.50;;;4.03;;
32198;SDS011;19221;42.656;21.156;2023-03-12T00:14:06;6.40;;;4.28;;
32198;SDS011;19221;42.656;21.156;2023-03-12T00:16:32;7.68;;;4.50;;
32198;SDS011;19221;42.656;21.156;2023-03-12T00:18:58;9.95;;;4.47;;
32198;SDS011;19221;42.656;21.156;2023-03-12T00:21:23;5.70;;;4.03;;
32198;SDS011;19221;42.656;21.156;2023-03-12T00:23:50;10.00;;;4.80;;
32198;SDS011;19221;42.656;21.156;2023-03-12T00:26:16;7.75;;;4.57;;
32198;SDS011;19221;42.656;21.156;2023-03-12T00:28:42;8.45;;;5.55;;
32198;SDS011;19221;42.656;21.156;2023-03-12T00:33:42;8.32;;;4.55;;
32198;SDS011;19221;42.656;21.156;2023-03-12T00:36:08;7.63;;;4.65;;
32198;SDS011;19221;42.656;21.156;2023-03-12T00:38:35;7.15;;;4.63;;
32198;SDS011;19221;42.656;21.156;2023-03-12T00:41:01;8.07;;;5.55;;
32198;SDS011;19221;42.656;21.156;2023-03-12T00:43:27;22.42;;;13.00;;
32198;SDS011;19221;42.656;21.156;2023-03-12T00:45:52;33.88;;;18.77;;
32198;SDS011;19221;42.656;21.156;2023-03-12T00:48:18;30.75;;;19.05;;
32198;SDS011;19221;42.656;21.156;2023-03-12T00:50:43;45.67;;;26.70;;
32198;SDS011;19221;42.656;21.156;2023-03-12T00:53:09;46.83;;;28.25;;
32198;SDS011;19221;42.656;21.156;2023-03-12T00:55:35;47.63;;;28.95;;
32198;SDS011;19221;42.656;21.156;2023-03-12T00:58:00;51.83;;;30.00;;
32198;SDS011;19221;42.656;21.156;2023-03-12T01:00:26;45.22;;;27.73;;
32198;SDS011;19221;42.656;21.156;2023-03-12T01:02:52;43.47;;;28.92;;
32198;SDS011;19221;42.656;21.156;2023-03-12T01:05:17;48.33;;;29.10;;
32198;SDS011;19221;42.656;21.156;2023-03-12T01:07:43;45.72;;;29.38;;
32198;SDS011;19221;42.656;21.156;2023-03-12T01:10:09;44.97;;;27.48;;
32198;SDS011;19221;42.656;21.156;2023-03-12T01:12:38;44.10;;;28.27;;
32198;SDS011;19221;42.656;21.156;2023-03-12T01:15:04;45.33;;;28.45;;
32198;SDS011;19221;42.656;21.156;2023-03-12T01:17:30;44.70;;;28.40;;
32198;SDS011;19221;42.656;21.156;2023-03-12T01:19:55;44.08;;;28.05;;
32198;SDS011;19221;42.656;21.156;2023-03-12T01:22:21;49.88;;;31.52;;
32198;SDS011;19221;42.656;21.156;2023-03-12T01:24:46;40.50;;;25.85;;
32198;SDS011;19221;42.656;21.156;2023-03-12T01:27:12;41.72;;;26.58;;
32198;SDS011;19221;42.656;21.156;2023-03-12T01:29:38;41.25;;;25.15;;
32198;SDS011;19221;42.656;21.156;2023-03-12T01:32:04;41.13;;;25.55;;
32198;SDS011;19221;42.656;21.156;2023-03-12T01:34:29;44.20;;;25.75;;
32198;SDS011;19221;42.656;21.156;2023-03-12T01:36:57;36.78;;;22.45;;
32198;SDS011;19221;42.656;21.156;2023-03-12T01:39:23;30.55;;;21.55;;
32198;SDS011;19221;42.656;21.156;2023-03-12T01:41:50;32.45;;;21.88;;
32198;SDS011;19221;42.656;21.156;2023-03-12T01:44:16;27.05;;;19.27;;
32198;SDS011;19221;42.656;21.156;2023-03-12T01:46:42;31.98;;;20.73;;
32198;SDS011;19221;42.656;21.156;2023-03-12T01:51:41;28.40;;;19.80;;
32198;SDS011;19221;42.656;21.156;2023-03-12T01:59:32;27.30;;;17.27;;
32198;SDS011;19221;42.656;21.156;2023-03-12T02:01:59;25.42;;;17.63;;
32198;SDS011;19221;42.656;21.156;2023-03-12T02:04:25;23.13;;;16.63;;
32198;SDS011;19221;42.656;21.156;2023-03-12T02:09:18;25.90;;;17.20;;
32198;SDS011;19221;42.656;21.156;2023-03-12T02:11:44;26.02;;;17.65;;
32198;SDS011;19221;42.656;21.156;2023-03-12T02:14:10;23.75;;;16.08;;
32198;SDS011;19221;42.656;21.156;2023-03-12T02:16:37;25.35;;;17.27;;
32198;SDS011;19221;42.656;21.156;2023-03-12T02:19:03;24.20;;;17.20;;
32198;SDS011;19221;42.656;21.156;2023-03-12T02:21:32;24.38;;;16.73;;
32198;SDS011;19221;42.656;21.156;2023-03-12T02:24:02;25.65;;;16.15;;
32198;SDS011;19221;42.656;21.156;2023-03-12T02:26:30;26.23;;;15.90;;
32198;SDS011;19221;42.656;21.156;2023-03-12T02:28:57;23.77;;;16.02;;
32198;SDS011;19221;42.656;21.156;2023-03-12T02:31:25;25.67;;;15.63;;
32198;SDS011;19221;42.656;21.156;2023-03-12T02:33:52;23.20;;;16.08;;
32198;SDS011;19221;42.656;21.156;2023-03-12T02:36:18;25.40;;;15.80;;
32198;SDS011;19221;42.656;21.156;2023-03-12T02:38:48;24.20;;;16.15;;
32198;SDS011;19221;42.656;21.156;2023-03-12T02:43:43;25.50;;;15.60;;
32198;SDS011;19221;42.656;21.156;2023-03-12T02:46:09;22.73;;;15.68;;
32198;SDS011;19221;42.656;21.156;2023-03-12T02:48:35;30.52;;;13.93;;
32198;SDS011;19221;42.656;21.156;2023-03-12T02:51:00;19.25;;;12.75;;
32198;SDS011;19221;42.656;21.156;2023-03-12T02:53:27;20.02;;;13.27;;
32198;SDS011;19221;42.656;21.156;2023-03-12T02:55:53;20.55;;;12.70;;
32198;SDS011;19221;42.656;21.156;2023-03-12T02:58:20;18.77;;;13.25;;
32198;SDS011;19221;42.656;21.156;2023-03-12T03:00:46;20.08;;;12.70;;
32198;SDS011;19221;42.656;21.156;2023-03-12T03:03:11;16.80;;;11.35;;
32198;SDS011;19221;42.656;21.156;2023-03-12T03:05:37;18.58;;;11.30;;
32198;SDS011;19221;42.656;21.156;2023-03-12T03:08:03;20.30;;;10.55;;
32198;SDS011;19221;42.656;21.156;2023-03-12T03:10:29;15.77;;;10.57;;
32198;SDS011;19221;42.656;21.156;2023-03-12T03:12:55;19.80;;;9.93;;
32198;SDS011;19221;42.656;21.156;2023-03-12T03:15:22;14.77;;;8.88;;
32198;SDS011;19221;42.656;21.156;2023-03-12T03:17:47;13.45;;;9.23;;
32198;SDS011;19221;42.656;21.156;2023-03-12T03:20:13;13.13;;;8.75;;
32198;SDS011;19221;42.656;21.156;2023-03-12T03:22:39;14.05;;;8.07;;
32198;SDS011;19221;42.656;21.156;2023-03-12T03:25:05;11.50;;;8.00;;
32198;SDS011;19221;42.656;21.156;2023-03-12T03:27:31;11.05;;;7.93;;
32198;SDS011;19221;42.656;21.156;2023-03-12T03:29:57;12.93;;;7.60;;
32198;SDS011;19221;42.656;21.156;2023-03-12T03:32:22;8.90;;;5.82;;
32198;SDS011;19221;42.656;21.156;2023-03-12T03:34:48;10.07;;;7.07;;
32198;SDS011;19221;42.656;21.156;2023-03-12T03:37:14;11.65;;;7.75;;
32198;SDS011;19221;42.656;21.156;2023-03-12T03:39:39;12.55;;;7.53;;
32198;SDS011;19221;42.656;21.156;2023-03-12T03:42:05;11.07;;;5.90;;
32198;SDS011;19221;42.656;21.156;2023-03-12T03:44:31;9.38;;;5.95;;
32198;SDS011;19221;42.656;21.156;2023-03-12T03:46:56;8.45;;;5.07;;
32198;SDS011;19221;42.656;21.156;2023-03-12T03:49:22;10.15;;;5.38;;
32198;SDS011;19221;42.656;21.156;2023-03-12T03:51:48;9.43;;;6.15;;
32198;SDS011;19221;42.656;21.156;2023-03-12T03:54:16;10.02;;;5.40;;
32198;SDS011;19221;42.656;21.156;2023-03-12T03:56:42;8.77;;;5.05;;
32198;SDS011;19221;42.656;21.156;2023-03-12T03:59:07;9.77;;;5.05;;
32198;SDS011;19221;42.656;21.156;2023-03-12T04:01:33;7.50;;;5.20;;
32198;SDS011;19221;42.656;21.156;2023-03-12T04:03:59;12.85;;;5.45;;
32198;SDS011;19221;42.656;21.156;2023-03-12T04:06:24;9.02;;;5.35;;
32198;SDS011;19221;42.656;21.156;2023-03-12T04:08:50;9.90;;;4.60;;
32198;SDS011;19221;42.656;21.156;2023-03-12T04:11:19;7.55;;;4.65;;
32198;SDS011;19221;42.656;21.156;2023-03-12T04:13:45;11.25;;;4.40;;
32198;SDS011;19221;42.656;21.156;2023-03-12T04:16:12;4.97;;;3.70;;
32198;SDS011;19221;42.656;21.156;2023-03-12T04:18:37;9.60;;;3.35;;
32198;SDS011;19221;42.656;21.156;2023-03-12T04:21:05;4.95;;;3.20;;
32198;SDS011;19221;42.656;21.156;2023-03-12T04:23:31;8.85;;;3.80;;
32198;SDS011;19221;42.656;21.156;2023-03-12T04:25:56;8.77;;;3.75;;
32198;SDS011;19221;42.656;21.156;2023-03-12T04:28:22;8.65;;;3.80;;
32198;SDS011;19221;42.656;21.156;2023-03-12T04:30:58;4.70;;;3.63;;
32198;SDS011;19221;42.656;21.156;2023-03-12T04:33:27;9.68;;;4.70;;
32198;SDS011;19221;42.656;21.156;2023-03-12T04:35:54;6.35;;;4.00;;
32198;SDS011;19221;42.656;21.156;2023-03-12T04:38:20;8.05;;;4.93;;
32198;SDS011;19221;42.656;21.156;2023-03-12T04:40:46;8.85;;;4.50;;
32198;SDS011;19221;42.656;21.156;2023-03-12T04:43:12;8.07;;;4.93;;
32198;SDS011;19221;42.656;21.156;2023-03-12T04:45:37;8.02;;;5.25;;
32198;SDS011;19221;42.656;21.156;2023-03-12T04:48:04;12.05;;;5.38;;
32198;SDS011;19221;42.656;21.156;2023-03-12T04:50:29;12.73;;;6.80;;
32198;SDS011;19221;42.656;21.156;2023-03-12T04:52:55;8.23;;;4.18;;
32198;SDS011;19221;42.656;21.156;2023-03-12T04:55:21;6.05;;;3.60;;
32198;SDS011;19221;42.656;21.156;2023-03-12T04:57:46;6.15;;;3.70;;
32198;SDS011;19221;42.656;21.156;2023-03-12T05:00:12;5.65;;;3.75;;
32198;SDS011;19221;42.656;21.156;2023-03-12T05:02:39;5.50;;;3.33;;
32198;SDS011;19221;42.656;21.156;2023-03-12T05:05:06;5.25;;;3.50;;
32198;SDS011;19221;42.656;21.156;2023-03-12T05:07:32;5.65;;;3.67;;
32198;SDS011;19221;42.656;21.156;2023-03-12T05:09:58;8.93;;;4.10;;
32198;SDS011;19221;42.656;21.156;2023-03-12T05:12:23;9.32;;;4.45;;
32198;SDS011;19221;42.656;21.156;2023-03-12T05:14:49;7.22;;;4.95;;
32198;SDS011;19221;42.656;21.156;2023-03-12T05:17:14;9.75;;;5.05;;
32198;SDS011;19221;42.656;21.156;2023-03-12T05:19:40;5.88;;;3.38;;
32198;SDS011;19221;42.656;21.156;2023-03-12T05:22:06;5.90;;;4.03;;
32198;SDS011;19221;42.656;21.156;2023-03-12T05:24:31;6.25;;;3.40;;
32198;SDS011;19221;42.656;21.156;2023-03-12T05:26:57;6.18;;;4.10;;
32198;SDS011;19221;42.656;21.156;2023-03-12T05:29:23;7.78;;;3.35;;
32198;SDS011;19221;42.656;21.156;2023-03-12T05:31:48;7.10;;;4.10;;
32198;SDS011;19221;42.656;21.156;2023-03-12T05:34:14;5.38;;;3.78;;
32198;SDS011;19221;42.656;21.156;2023-03-12T05:36:40;7.00;;;3.90;;
32198;SDS011;19221;42.656;21.156;2023-03-12T05:39:05;7.38;;;3.60;;
32198;SDS011;19221;42.656;21.156;2023-03-12T05:41:31;15.98;;;4.60;;
32198;SDS011;19221;42.656;21.156;2023-03-12T05:43:57;5.18;;;3.40;;
32198;SDS011;19221;42.656;21.156;2023-03-12T05:46:24;7.07;;;3.50;;
32198;SDS011;19221;42.656;21.156;2023-03-12T05:48:50;5.53;;;3.40;;
32198;SDS011;19221;42.656;21.156;2023-03-12T05:51:16;8.98;;;3.53;;
32198;SDS011;19221;42.656;21.156;2023-03-12T05:53:41;6.78;;;3.42;;
32198;SDS011;19221;42.656;21.156;2023-03-12T05:56:09;5.97;;;3.35;;
32198;SDS011;19221;42.656;21.156;2023-03-12T05:58:35;6.25;;;3.67;;
32198;SDS011;19221;42.656;21.156;2023-03-12T06:01:02;6.85;;;3.67;;
32198;SDS011;19221;42.656;21.156;2023-03-12T06:03:29;6.45;;;4.20;;
32198;SDS011;19221;42.656;21.156;2023-03-12T06:05:55;13.20;;;5.00;;
32198;SDS011;19221;42.656;21.156;2023-03-12T06:08:21;8.52;;;4.72;;
32198;SDS011;19221;42.656;21.156;2023-03-12T06:10:49;10.32;;;5.25;;
32198;SDS011;19221;42.656;21.156;2023-03-12T06:13:15;13.70;;;6.28;;
32198;SDS011;19221;42.656;21.156;2023-03-12T06:15:40;10.52;;;5.95;;
32198;SDS011;19221;42.656;21.156;2023-03-12T06:18:06;17.13;;;6.82;;
32198;SDS011;19221;42.656;21.156;2023-03-12T06:20:31;11.75;;;5.93;;
32198;SDS011;19221;42.656;21.156;2023-03-12T06:22:57;12.75;;;6.80;;
32198;SDS011;19221;42.656;21.156;2023-03-12T06:25:23;11.85;;;6.03;;
32198;SDS011;19221;42.656;21.156;2023-03-12T06:27:48;11.18;;;6.18;;
32198;SDS011;19221;42.656;21.156;2023-03-12T06:30:14;12.57;;;6.70;;
32198;SDS011;19221;42.656;21.156;2023-03-12T06:32:40;8.60;;;5.13;;
32198;SDS011;19221;42.656;21.156;2023-03-12T06:35:05;13.70;;;6.43;;
32198;SDS011;19221;42.656;21.156;2023-03-12T06:37:32;20.70;;;7.07;;
32198;SDS011;19221;42.656;21.156;2023-03-12T06:39:58;16.30;;;8.35;;
32198;SDS011;19221;42.656;21.156;2023-03-12T06:42:24;19.38;;;9.65;;
32198;SDS011;19221;42.656;21.156;2023-03-12T06:44:51;16.65;;;8.63;;
32198;SDS011;19221;42.656;21.156;2023-03-12T06:47:16;10.57;;;6.70;;
32198;SDS011;19221;42.656;21.156;2023-03-12T06:49:42;11.38;;;5.25;;
32198;SDS011;19221;42.656;21.156;2023-03-12T06:52:08;10.50;;;5.70;;
32198;SDS011;19221;42.656;21.156;2023-03-12T06:54:33;13.30;;;6.97;;
32198;SDS011;19221;42.656;21.156;2023-03-12T06:56:59;9.52;;;6.07;;
32198;SDS011;19221;42.656;21.156;2023-03-12T06:59:25;12.27;;;7.40;;
32198;SDS011;19221;42.656;21.156;2023-03-12T07:01:51;15.63;;;7.63;;
32198;SDS011;19221;42.656;21.156;2023-03-12T07:04:17;10.00;;;5.78;;
32198;SDS011;19221;42.656;21.156;2023-03-12T07:06:43;7.35;;;4.75;;
32198;SDS011;19221;42.656;21.156;2023-03-12T07:09:08;8.43;;;4.45;;
32198;SDS011;19221;42.656;21.156;2023-03-12T07:11:34;8.65;;;4.65;;
32198;SDS011;19221;42.656;21.156;2023-03-12T07:14:00;13.55;;;8.30;;
32198;SDS011;19221;42.656;21.156;2023-03-12T07:16:26;7.47;;;4.57;;
32198;SDS011;19221;42.656;21.156;2023-03-12T07:18:52;8.60;;;5.07;;
32198;SDS011;19221;42.656;21.156;2023-03-12T07:21:18;9.23;;;4.88;;
32198;SDS011;19221;42.656;21.156;2023-03-12T07:23:49;8.60;;;5.03;;
32198;SDS011;19221;42.656;21.156;2023-03-12T07:26:15;9.38;;;5.70;;
32198;SDS011;19221;42.656;21.156;2023-03-12T07:28:41;9.38;;;5.40;;
32198;SDS011;19221;42.656;21.156;2023-03-12T07:31:06;10.35;;;6.78;;
32198;SDS011;19221;42.656;21.156;2023-03-12T07:33:32;11.20;;;6.28;;
32198;SDS011;19221;42.656;21.156;2023-03-12T07:35:58;9.45;;;6.40;;
32198;SDS011;19221;42.656;21.156;2023-03-12T07:38:24;9.43;;;5.57;;
32198;SDS011;19221;42.656;21.156;2023-03-12T07:40:50;8.50;;;6.20;;
32198;SDS011;19221;42.656;21.156;2023-03-12T07:43:16;10.68;;;5.65;;
32198;SDS011;19221;42.656;21.156;2023-03-12T07:45:41;10.48;;;6.25;;
32198;SDS011;19221;42.656;21.156;2023-03-12T07:48:07;9.38;;;5.90;;
32198;SDS011;19221;42.656;21.156;2023-03-12T07:50:33;10.65;;;6.53;;
32198;SDS011;19221;42.656;21.156;2023-03-12T07:52:59;11.65;;;6.13;;
32198;SDS011;19221;42.656;21.156;2023-03-12T07:55:26;10.48;;;5.72;;
32198;SDS011;19221;42.656;21.156;2023-03-12T07:57:51;8.65;;;4.95;;
32198;SDS011;19221;42.656;21.156;2023-03-12T08:00:18;8.35;;;5.82;;
32198;SDS011;19221;42.656;21.156;2023-03-12T08:02:43;10.35;;;5.13;;
32198;SDS011;19221;42.656;21.156;2023-03-12T08:05:09;7.57;;;4.65;;
32198;SDS011;19221;42.656;21.156;2023-03-12T08:07:35;7.40;;;4.47;;
32198;SDS011;19221;42.656;21.156;2023-03-12T08:10:02;9.20;;;5.07;;
32198;SDS011;19221;42.656;21.156;2023-03-12T08:12:29;9.27;;;5.00;;
32198;SDS011;19221;42.656;21.156;2023-03-12T08:14:54;6.88;;;4.75;;
32198;SDS011;19221;42.656;21.156;2023-03-12T08:17:21;7.70;;;4.90;;
32198;SDS011;19221;42.656;21.156;2023-03-12T08:19:47;8.02;;;4.40;;
32198;SDS011;19221;42.656;21.156;2023-03-12T08:22:12;9.02;;;5.43;;
32198;SDS011;19221;42.656;21.156;2023-03-12T08:24:38;8.63;;;5.05;;
32198;SDS011;19221;42.656;21.156;2023-03-12T08:27:05;10.85;;;5.25;;
32198;SDS011;19221;42.656;21.156;2023-03-12T08:29:30;10.25;;;5.30;;
32198;SDS011;19221;42.656;21.156;2023-03-12T08:31:58;10.48;;;6.18;;
32198;SDS011;19221;42.656;21.156;2023-03-12T08:34:23;8.98;;;5.82;;
32198;SDS011;19221;42.656;21.156;2023-03-12T08:36:49;7.40;;;4.50;;
32198;SDS011;19221;42.656;21.156;2023-03-12T08:39:15;9.23;;;5.05;;
32198;SDS011;19221;42.656;21.156;2023-03-12T08:41:40;7.40;;;4.90;;
32198;SDS011;19221;42.656;21.156;2023-03-12T08:44:06;5.97;;;4.55;;
32198;SDS011;19221;42.656;21.156;2023-03-12T08:46:31;9.77;;;4.50;;
32198;SDS011;19221;42.656;21.156;2023-03-12T08:48:57;7.78;;;4.45;;
32198;SDS011;19221;42.656;21.156;2023-03-12T08:51:23;10.20;;;4.82;;
32198;SDS011;19221;42.656;21.156;2023-03-12T08:53:48;7.85;;;4.82;;
32198;SDS011;19221;42.656;21.156;2023-03-12T08:56:14;12.52;;;7.05;;
32198;SDS011;19221;42.656;21.156;2023-03-12T08:58:40;12.85;;;5.65;;
32198;SDS011;19221;42.656;21.156;2023-03-12T09:01:07;6.90;;;4.65;;
32198;SDS011;19221;42.656;21.156;2023-03-12T09:03:33;7.47;;;4.47;;
32198;SDS011;19221;42.656;21.156;2023-03-12T09:06:07;4.35;;;3.10;;
32198;SDS011;19221;42.656;21.156;2023-03-12T09:08:40;10.82;;;4.97;;
32198;SDS011;19221;42.656;21.156;2023-03-12T09:11:07;11.15;;;5.75;;
32198;SDS011;19221;42.656;21.156;2023-03-12T09:13:33;7.10;;;4.05;;
32198;SDS011;19221;42.656;21.156;2023-03-12T09:15:59;6.25;;;3.60;;
32198;SDS011;19221;42.656;21.156;2023-03-12T09:18:25;9.32;;;5.93;;
32198;SDS011;19221;42.656;21.156;2023-03-12T09:20:51;9.07;;;5.60;;
32198;SDS011;19221;42.656;21.156;2023-03-12T09:23:17;11.65;;;4.93;;
32198;SDS011;19221;42.656;21.156;2023-03-12T09:25:46;8.02;;;4.70;;
32198;SDS011;19221;42.656;21.156;2023-03-12T09:28:11;7.47;;;5.20;;
32198;SDS011;19221;42.656;21.156;2023-03-12T09:30:37;9.73;;;6.60;;
32198;SDS011;19221;42.656;21.156;2023-03-12T09:33:03;7.88;;;4.80;;
32198;SDS011;19221;42.656;21.156;2023-03-12T09:35:29;11.02;;;6.65;;
32198;SDS011;19221;42.656;21.156;2023-03-12T09:37:56;7.75;;;5.53;;
32198;SDS011;19221;42.656;21.156;2023-03-12T09:40:23;10.07;;;5.50;;
32198;SDS011;19221;42.656;21.156;2023-03-12T09:42:52;8.30;;;5.72;;
32198;SDS011;19221;42.656;21.156;2023-03-12T09:45:20;9.85;;;5.03;;
32198;SDS011;19221;42.656;21.156;2023-03-12T09:47:52;7.25;;;4.38;;
32198;SDS011;19221;42.656;21.156;2023-03-12T09:50:29;7.30;;;4.30;;
32198;SDS011;19221;42.656;21.156;2023-03-12T09:53:02;6.78;;;4.25;;
32198;SDS011;19221;42.656;21.156;2023-03-12T09:55:34;4.97;;;3.58;;
32198;SDS011;19221;42.656;21.156;2023-03-12T09:58:01;8.43;;;4.30;;
32198;SDS011;19221;42.656;21.156;2023-03-12T10:00:30;6.32;;;4.30;;
32198;SDS011;19221;42.656;21.156;2023-03-12T10:11:14;6.43;;;3.90;;
32198;SDS011;19221;42.656;21.156;2023-03-12T10:18:37;3.85;;;3.03;;
32198;SDS011;19221;42.656;21.156;2023-03-12T10:26:37;8.15;;;4.22;;
32198;SDS011;19221;42.656;21.156;2023-03-12T10:31:47;7.53;;;4.10;;
32198;SDS011;19221;42.656;21.156;2023-03-12T10:37:16;6.43;;;3.72;;
32198;SDS011;19221;42.656;21.156;2023-03-12T10:39:42;4.57;;;3.35;;
32198;SDS011;19221;42.656;21.156;2023-03-12T10:42:24;3.63;;;2.50;;
32198;SDS011;19221;42.656;21.156;2023-03-12T10:44:51;5.15;;;3.15;;
32198;SDS011;19221;42.656;21.156;2023-03-12T10:49:43;7.13;;;3.38;;
32198;SDS011;19221;42.656;21.156;2023-03-12T10:52:15;6.97;;;3.65;;
32198;SDS011;19221;42.656;21.156;2023-03-12T10:54:42;6.80;;;4.25;;
32198;SDS011;19221;42.656;21.156;2023-03-12T10:57:09;5.07;;;3.40;;
32198;SDS011;19221;42.656;21.156;2023-03-12T10:59:36;6.95;;;4.05;;
32198;SDS011;19221;42.656;21.156;2023-03-12T11:02:10;6.63;;;3.83;;
32198;SDS011;19221;42.656;21.156;2023-03-12T11:04:51;4.03;;;2.80;;
32198;SDS011;19221;42.656;21.156;2023-03-12T11:07:18;6.10;;;3.25;;
32198;SDS011;19221;42.656;21.156;2023-03-12T11:09:52;5.05;;;2.88;;
32198;SDS011;19221;42.656;21.156;2023-03-12T11:12:29;8.13;;;3.90;;
32198;SDS011;19221;42.656;21.156;2023-03-12T11:14:59;3.28;;;2.53;;
32198;SDS011;19221;42.656;21.156;2023-03-12T11:17:25;4.68;;;2.72;;
32198;SDS011;19221;42.656;21.156;2023-03-12T11:19:51;6.82;;;3.90;;
32198;SDS011;19221;42.656;21.156;2023-03-12T11:22:33;5.10;;;3.08;;
32198;SDS011;19221;42.656;21.156;2023-03-12T11:25:03;4.03;;;2.90;;
32198;SDS011;19221;42.656;21.156;2023-03-12T11:27:35;5.05;;;3.53;;
32198;SDS011;19221;42.656;21.156;2023-03-12T11:30:03;5.68;;;3.00;;
32198;SDS011;19221;42.656;21.156;2023-03-12T11:32:33;6.07;;;3.10;;
32198;SDS011;19221;42.656;21.156;2023-03-12T11:35:00;4.22;;;3.13;;
32198;SDS011;19221;42.656;21.156;2023-03-12T11:53:02;7.38;;;3.70;;
32198;SDS011;19221;42.656;21.156;2023-03-12T11:55:41;5.63;;;3.10;;
32198;SDS011;19221;42.656;21.156;2023-03-12T12:00:40;4.88;;;3.10;;
32198;SDS011;19221;42.656;21.156;2023-03-12T12:16:15;7.22;;;3.17;;
32198;SDS011;19221;42.656;21.156;2023-03-12T12:18:59;5.18;;;3.65;;
32198;SDS011;19221;42.656;21.156;2023-03-12T12:21:32;5.82;;;3.90;;
32198;SDS011;19221;42.656;21.156;2023-03-12T12:24:06;6.50;;;4.50;;
32198;SDS011;19221;42.656;21.156;2023-03-12T12:26:37;5.97;;;4.03;;
32198;SDS011;19221;42.656;21.156;2023-03-12T12:31:44;6.50;;;4.85;;
32198;SDS011;19221;42.656;21.156;2023-03-12T12:34:23;7.57;;;4.05;;
32198;SDS011;19221;42.656;21.156;2023-03-12T12:39:39;6.25;;;3.80;;
32198;SDS011;19221;42.656;21.156;2023-03-12T12:42:08;6.00;;;3.78;;
32198;SDS011;19221;42.656;21.156;2023-03-12T12:44:40;5.20;;;4.10;;
32198;SDS011;19221;42.656;21.156;2023-03-12T12:47:08;5.45;;;3.75;;
32198;SDS011;19221;42.656;21.156;2023-03-12T12:49:42;6.30;;;4.38;;
32198;SDS011;19221;42.656;21.156;2023-03-12T12:52:11;4.47;;;3.25;;
32198;SDS011;19221;42.656;21.156;2023-03-12T12:54:45;4.35;;;3.33;;
32198;SDS011;19221;42.656;21.156;2023-03-12T12:57:21;4.03;;;2.70;;
32198;SDS011;19221;42.656;21.156;2023-03-12T13:02:27;5.35;;;3.80;;
32198;SDS011;19221;42.656;21.156;2023-03-12T13:04:57;5.20;;;3.22;;
32198;SDS011;19221;42.656;21.156;2023-03-12T13:09:50;7.88;;;5.10;;
32198;SDS011;19221;42.656;21.156;2023-03-12T13:14:54;9.25;;;3.75;;
32198;SDS011;19221;42.656;21.156;2023-03-12T13:17:22;5.70;;;4.18;;
32198;SDS011;19221;42.656;21.156;2023-03-12T13:19:48;6.47;;;4.00;;
32198;SDS011;19221;42.656;21.156;2023-03-12T13:29:49;7.68;;;4.75;;
32198;SDS011;19221;42.656;21.156;2023-03-12T13:34:59;5.72;;;3.50;;
32198;SDS011;19221;42.656;21.156;2023-03-12T13:46:07;6.82;;;3.53;;
32198;SDS011;19221;42.656;21.156;2023-03-12T13:48:34;6.20;;;4.05;;
32198;SDS011;19221;42.656;21.156;2023-03-12T13:51:14;7.72;;;4.53;;
32198;SDS011;19221;42.656;21.156;2023-03-12T13:53:40;8.93;;;5.28;;
32198;SDS011;19221;42.656;21.156;2023-03-12T13:56:08;14.18;;;7.10;;
32198;SDS011;19221;42.656;21.156;2023-03-12T13:59:17;5.50;;;3.50;;
32198;SDS011;19221;42.656;21.156;2023-03-12T14:01:25;6.18;;;3.05;;
32198;SDS011;19221;42.656;21.156;2023-03-12T14:03:53;3.53;;;2.70;;
32198;SDS011;19221;42.656;21.156;2023-03-12T14:06:20;4.00;;;2.63;;
32198;SDS011;19221;42.656;21.156;2023-03-12T14:08:59;7.82;;;4.53;;
32198;SDS011;19221;42.656;21.156;2023-03-12T14:11:33;32.88;;;15.05;;
32198;SDS011;19221;42.656;21.156;2023-03-12T14:16:50;5.85;;;3.55;;
32198;SDS011;19221;42.656;21.156;2023-03-12T14:19:18;11.38;;;6.55;;
32198;SDS011;19221;42.656;21.156;2023-03-12T14:21:46;12.13;;;6.20;;
32198;SDS011;19221;42.656;21.156;2023-03-12T14:24:17;10.90;;;5.05;;
32198;SDS011;19221;42.656;21.156;2023-03-12T14:26:44;8.73;;;4.40;;
32198;SDS011;19221;42.656;21.156;2023-03-12T14:29:14;8.45;;;5.35;;
32198;SDS011;19221;42.656;21.156;2023-03-12T14:31:43;5.75;;;3.95;;
32198;SDS011;19221;42.656;21.156;2023-03-12T14:36:59;9.57;;;4.10;;
32198;SDS011;19221;42.656;21.156;2023-03-12T14:39:29;9.00;;;5.13;;
32198;SDS011;19221;42.656;21.156;2023-03-12T14:42:00;11.95;;;5.82;;
32198;SDS011;19221;42.656;21.156;2023-03-12T14:44:27;8.13;;;5.78;;
32198;SDS011;19221;42.656;21.156;2023-03-12T14:47:06;9.82;;;5.93;;
32198;SDS011;19221;42.656;21.156;2023-03-12T14:49:41;7.72;;;4.90;;
32198;SDS011;19221;42.656;21.156;2023-03-12T14:52:10;9.50;;;5.95;;
32198;SDS011;19221;42.656;21.156;2023-03-12T14:54:35;7.50;;;5.00;;
32198;SDS011;19221;42.656;21.156;2023-03-12T14:57:03;10.35;;;5.80;;
32198;SDS011;19221;42.656;21.156;2023-03-12T14:59:32;8.38;;;5.03;;
32198;SDS011;19221;42.656;21.156;2023-03-12T15:02:00;7.60;;;3.83;;
32198;SDS011;19221;42.656;21.156;2023-03-12T15:04:28;7.78;;;4.65;;
32198;SDS011;19221;42.656;21.156;2023-03-12T15:06:55;12.88;;;6.50;;
32198;SDS011;19221;42.656;21.156;2023-03-12T15:09:22;11.43;;;5.47;;
32198;SDS011;19221;42.656;21.156;2023-03-12T15:11:51;11.13;;;7.00;;
32198;SDS011;19221;42.656;21.156;2023-03-12T15:14:19;8.07;;;4.72;;
32198;SDS011;19221;42.656;21.156;2023-03-12T15:16:46;11.40;;;6.93;;
32198;SDS011;19221;42.656;21.156;2023-03-12T15:19:12;12.10;;;7.55;;
32198;SDS011;19221;42.656;21.156;2023-03-12T15:21:39;10.25;;;6.60;;
32198;SDS011;19221;42.656;21.156;2023-03-12T15:24:04;10.27;;;5.18;;
32198;SDS011;19221;42.656;21.156;2023-03-12T15:26:31;11.60;;;5.97;;
32198;SDS011;19221;42.656;21.156;2023-03-12T15:31:46;8.73;;;5.38;;
32198;SDS011;19221;42.656;21.156;2023-03-12T15:34:13;9.82;;;6.28;;
32198;SDS011;19221;42.656;21.156;2023-03-12T15:36:50;9.48;;;5.47;;
32198;SDS011;19221;42.656;21.156;2023-03-12T15:39:24;12.18;;;6.65;;
32198;SDS011;19221;42.656;21.156;2023-03-12T15:41:51;12.27;;;6.95;;
32198;SDS011;19221;42.656;21.156;2023-03-12T15:44:18;7.75;;;4.85;;
32198;SDS011;19221;42.656;21.156;2023-03-12T15:46:45;10.00;;;6.18;;
32198;SDS011;19221;42.656;21.156;2023-03-12T15:49:16;9.20;;;5.43;;
32198;SDS011;19221;42.656;21.156;2023-03-12T15:51:44;10.77;;;6.85;;
32198;SDS011;19221;42.656;21.156;2023-03-12T15:54:25;10.13;;;6.45;;
32198;SDS011;19221;42.656;21.156;2023-03-12T15:56:51;10.13;;;5.47;;
32198;SDS011;19221;42.656;21.156;2023-03-12T15:59:19;9.13;;;5.38;;
32198;SDS011;19221;42.656;21.156;2023-03-12T16:01:48;10.15;;;6.53;;
32198;SDS011;19221;42.656;21.156;2023-03-12T16:04:14;11.27;;;7.00;;
32198;SDS011;19221;42.656;21.156;2023-03-12T16:06:40;16.48;;;8.48;;
32198;SDS011;19221;42.656;21.156;2023-03-12T16:09:09;13.00;;;8.02;;
32198;SDS011;19221;42.656;21.156;2023-03-12T16:11:36;12.60;;;8.18;;
32198;SDS011;19221;42.656;21.156;2023-03-12T16:14:06;14.30;;;8.07;;
32198;SDS011;19221;42.656;21.156;2023-03-12T16:16:34;16.15;;;9.20;;
32198;SDS011;19221;42.656;21.156;2023-03-12T16:19:00;15.85;;;9.82;;
32198;SDS011;19221;42.656;21.156;2023-03-12T16:21:26;14.75;;;9.65;;